Time;durP1;ratioP1;P1;durP2;ratioP2;P2;SDS_P1;SDS_P2;PMS_P1;PMS_P2;Temp;Humidity;BMP_temperature;BMP_pressure;BME280_temperature;BME280_humidity;BME280_pressure;Samples;Min_cycle;Max_cycle;Signal;HPM_P1;HPM_P2
2022/09/04 00:02:03;;;;;;;8.15;5.25;;;24.30;76.70;;;;;;6369460;22;20073;-85
2022/09/04 00:04:35;;;;;;;7.57;4.55;;;24.30;76.70;;;;;;6361556;22;20025;-84
2022/09/04 00:07:47;;;;;;;6.57;5.00;;;24.20;76.70;;;;;;6369068;22;20427;-84
2022/09/04 00:10:28;;;;;;;5.40;4.22;;;24.30;77.00;;;;;;6300049;22;20010;-84
2022/09/04 00:13:32;;;;;;;5.88;3.97;;;24.30;77.00;;;;;;6369563;22;20026;-84
2022/09/04 00:16:27;;;;;;;4.30;3.22;;;24.20;77.20;;;;;;6212456;23;20076;-85
2022/09/04 00:19:01;;;;;;;3.72;2.95;;;24.20;77.20;;;;;;6370116;22;19995;-84
2022/09/04 00:21:39;;;;;;;4.72;3.40;;;24.30;77.00;;;;;;6342653;22;20384;-84
2022/09/04 00:24:14;;;;;;;5.57;3.30;;;24.30;77.00;;;;;;6369481;22;19994;-84
2022/09/04 00:26:55;;;;;;;5.18;3.25;;;24.30;77.10;;;;;;6369270;22;20436;-84
2022/09/04 00:30:02;;;;;;;4.75;3.17;;;24.20;77.00;;;;;;6369973;22;20022;-84
2022/09/04 00:32:37;;;;;;;4.82;3.17;;;24.20;77.10;;;;;;6213282;23;20475;-84
2022/09/04 00:35:18;;;;;;;6.05;3.05;;;24.20;77.30;;;;;;6325268;22;20010;-85
2022/09/04 00:37:52;;;;;;;5.30;3.03;;;24.20;77.40;;;;;;6370727;22;20001;-85
2022/09/04 00:40:36;;;;;;;5.30;2.88;;;24.00;77.40;;;;;;6369845;22;20057;-86
2022/09/04 00:43:22;;;;;;;5.25;2.85;;;24.20;77.90;;;;;;6369591;22;20079;-86
2022/09/04 00:46:03;;;;;;;4.07;2.70;;;24.10;77.60;;;;;;6369977;22;20304;-85
2022/09/04 00:48:57;;;;;;;3.72;2.72;;;24.10;77.80;;;;;;6370133;22;20002;-83
2022/09/04 00:51:40;;;;;;;3.80;2.88;;;24.10;77.90;;;;;;6370324;22;20030;-85
2022/09/04 00:54:08;;;;;;;4.47;3.10;;;24.10;78.00;;;;;;6369775;22;20006;-87
2022/09/04 00:56:58;;;;;;;3.83;3.03;;;24.10;78.00;;;;;;6369622;22;19998;-85
2022/09/04 00:59:33;;;;;;;3.72;3.30;;;24.10;78.00;;;;;;6370299;22;20343;-85
2022/09/04 01:02:21;;;;;;;3.88;3.35;;;24.10;78.10;;;;;;6369548;22;20022;-85
2022/09/04 01:05:11;;;;;;;5.68;3.40;;;24.10;78.20;;;;;;6369145;22;19999;-83
2022/09/04 01:08:09;;;;;;;5.90;3.40;;;24.10;78.20;;;;;;6368594;22;20010;-85
2022/09/04 01:11:23;;;;;;;4.50;3.38;;;24.10;78.30;;;;;;6369607;22;19998;-86
2022/09/04 01:14:00;;;;;;;4.93;3.90;;;24.10;78.40;;;;;;6230227;22;20047;-84
2022/09/04 01:16:31;;;;;;;4.45;2.92;;;24.10;78.40;;;;;;6368487;22;20006;-85
2022/09/04 01:19:09;;;;;;;3.65;3.08;;;24.10;78.60;;;;;;6370288;22;20021;-86
2022/09/04 01:22:03;;;;;;;4.57;3.45;;;24.00;78.50;;;;;;6369093;22;20002;-82
2022/09/04 01:25:00;;;;;;;4.53;3.30;;;24.00;78.60;;;;;;6369054;22;20488;-85
2022/09/04 01:27:30;;;;;;;3.15;2.72;;;23.90;78.80;;;;;;6368519;22;20412;-84
2022/09/04 01:30:13;;;;;;;;;;;23.90;78.90;;;;;;6369732;22;20002;-83
2022/09/04 01:33:07;;;;;;;4.43;3.28;;;23.90;79.20;;;;;;6342032;22;19906;-83
2022/09/04 01:36:01;;;;;;;4.45;3.42;;;23.90;79.10;;;;;;6368027;22;20085;-83
2022/09/04 01:38:53;;;;;;;8.27;5.45;;;23.90;79.50;;;;;;6369781;22;19994;-83
2022/09/04 01:41:37;;;;;;;6.50;4.43;;;23.80;79.80;;;;;;6368660;22;19998;-84
2022/09/04 01:44:06;;;;;;;4.55;3.72;;;23.70;79.50;;;;;;6369848;22;19998;-83
2022/09/04 01:46:43;;;;;;;6.03;3.73;;;23.70;79.60;;;;;;6369268;22;20471;-85
2022/09/04 01:49:31;;;;;;;4.57;3.45;;;23.70;79.70;;;;;;6368641;22;20425;-84
2022/09/04 01:52:05;;;;;;;7.82;4.45;;;23.70;79.80;;;;;;6369504;22;20013;-84
2022/09/04 01:54:58;;;;;;;4.22;3.45;;;23.70;79.90;;;;;;6369531;22;20056;-84
2022/09/04 01:57:27;;;;;;;5.50;3.85;;;23.70;80.00;;;;;;6369332;22;20070;-83
2022/09/04 02:00:16;;;;;;;4.80;3.60;;;23.70;80.10;;;;;;6340968;22;20352;-83
2022/09/04 02:02:59;;;;;;;5.30;4.05;;;23.60;80.20;;;;;;6368601;22;20047;-83
2022/09/04 02:05:27;;;;;;;4.35;3.33;;;23.60;80.20;;;;;;6369523;22;20073;-83
2022/09/04 02:08:01;;;;;;;4.75;3.60;;;23.60;80.20;;;;;;6367996;22;20006;-83
2022/09/04 02:10:42;;;;;;;3.80;3.28;;;23.60;80.30;;;;;;6368810;22;20055;-83
2022/09/04 02:13:28;;;;;;;2.97;2.67;;;23.60;80.40;;;;;;6367939;22;20002;-83
2022/09/04 02:15:59;;;;;;;3.50;2.78;;;23.60;80.40;;;;;;6368221;22;20007;-84
2022/09/04 02:18:45;;;;;;;5.30;3.30;;;23.60;80.30;;;;;;6368296;22;20004;-84
2022/09/04 02:21:20;;;;;;;3.80;3.08;;;23.60;80.20;;;;;;6368801;22;20047;-84
2022/09/04 02:24:05;;;;;;;3.80;3.38;;;23.60;80.30;;;;;;6341725;22;20048;-84
2022/09/04 02:26:45;;;;;;;7.32;3.88;;;23.60;80.20;;;;;;6370168;22;20006;-84
2022/09/04 02:29:35;;;;;;;10.40;5.70;;;23.50;80.30;;;;;;6371238;22;19998;-84
2022/09/04 02:32:08;;;;;;;6.53;5.28;;;23.20;81.80;;;;;;6370405;22;20026;-84
2022/09/04 02:34:52;;;;;;;6.10;4.15;;;23.00;82.90;;;;;;6371155;22;20435;-83
2022/09/04 02:38:05;;;;;;;10.85;5.43;;;23.00;82.20;;;;;;6370649;22;19999;-83
2022/09/04 02:40:46;;;;;;;5.80;5.20;;;23.00;83.00;;;;;;6356633;22;20009;-83
2022/09/04 02:43:24;;;;;;;5.45;3.78;;;23.10;82.40;;;;;;6343399;22;20067;-83
2022/09/04 02:46:08;;;;;;;5.25;4.30;;;23.10;82.50;;;;;;6370760;22;19998;-84
2022/09/04 02:49:12;;;;;;;6.63;5.75;;;23.10;82.40;;;;;;6370746;22;20002;-83
2022/09/04 02:51:49;;;;;;;6.57;5.72;;;23.10;83.10;;;;;;6370309;22;20009;-83
2022/09/04 02:54:49;;;;;;;5.93;4.93;;;23.00;83.70;;;;;;6371738;22;20025;-83
2022/09/04 02:57:56;;;;;;;6.00;5.07;;;22.90;83.80;;;;;;6370897;22;20309;-83
2022/09/04 03:00:53;;;;;;;6.03;4.50;;;22.80;84.00;;;;;;6350540;22;20002;-83
2022/09/04 03:03:33;;;;;;;7.75;6.07;;;22.80;83.60;;;;;;6369981;22;20069;-82
2022/09/04 03:06:12;;;;;;;8.65;5.75;;;22.60;85.60;;;;;;6340992;22;20054;-83
2022/09/04 03:08:48;;;;;;;7.32;5.85;;;22.40;86.20;;;;;;6369352;22;20389;-81
2022/09/04 03:11:39;;;;;;;6.95;6.05;;;22.40;86.70;;;;;;6369861;22;20006;-82
2022/09/04 03:14:33;;;;;;;6.85;5.20;;;22.40;86.10;;;;;;6370689;22;20090;-81
2022/09/04 03:17:16;;;;;;;4.97;4.22;;;22.50;85.80;;;;;;6369362;22;20660;-81
2022/09/04 03:19:45;;;;;;;6.82;6.13;;;22.50;85.20;;;;;;6369658;22;19998;-81
2022/09/04 03:22:22;;;;;;;5.87;5.17;;;22.50;86.40;;;;;;6370084;22;20413;-81
2022/09/04 03:25:10;;;;;;;6.30;4.68;;;22.40;86.40;;;;;;6370463;22;20071;-81
2022/09/04 03:27:36;;;;;;;9.00;6.07;;;22.40;86.10;;;;;;6370439;22;19998;-80
2022/09/04 03:30:13;;;;;;;6.70;5.28;;;22.30;86.60;;;;;;6369941;22;19994;-80
2022/09/04 03:33:02;;;;;;;4.90;4.40;;;22.30;87.00;;;;;;6369772;22;20006;-80
2022/09/04 03:35:36;;;;;;;6.55;5.40;;;22.30;86.50;;;;;;6370231;22;20006;-81
2022/09/04 03:38:16;;;;;;;5.30;4.30;;;22.30;86.60;;;;;;6370907;22;19998;-81
2022/09/04 03:41:06;;;;;;;11.13;6.00;;;22.40;85.90;;;;;;6370067;22;19994;-82
2022/09/04 03:43:31;;;;;;;;;;;22.30;87.00;;;;;;6370624;22;19994;-82
2022/09/04 03:46:05;;;;;;;5.95;5.30;;;22.30;86.50;;;;;;6369410;22;19909;-81
2022/09/04 03:48:49;;;;;;;4.60;3.97;;;22.30;87.00;;;;;;6370135;22;20002;-81
2022/09/04 03:51:24;;;;;;;6.03;4.60;;;22.30;86.50;;;;;;6370346;22;20002;-81
2022/09/04 03:54:14;;;;;;;4.95;3.88;;;22.30;86.40;;;;;;6371060;22;20003;-81
2022/09/04 03:56:52;;;;;;;6.32;5.70;;;22.40;86.00;;;;;;6370128;22;20081;-81
2022/09/04 03:59:30;;;;;;;7.78;6.97;;;22.40;86.80;;;;;;6369756;22;19995;-81
2022/09/04 04:02:22;;;;;;;8.85;7.30;;;22.30;87.30;;;;;;6370121;22;19995;-81
2022/09/04 04:05:06;;;;;;;5.25;4.75;;;22.20;87.90;;;;;;6369826;22;20005;-81
2022/09/04 04:07:56;;;;;;;5.97;4.90;;;22.20;87.60;;;;;;6370326;22;19999;-82
2022/09/04 04:10:32;;;;;;;;;;;22.20;87.60;;;;;;6369940;22;19999;-82
2022/09/04 04:13:22;;;;;;;8.82;6.20;;;22.20;87.90;;;;;;6368630;22;19905;-80
2022/09/04 04:16:12;;;;;;;8.45;5.80;;;22.10;88.50;;;;;;6341694;22;20029;-79
2022/09/04 04:18:52;;;;;;;6.47;5.88;;;21.90;89.00;;;;;;6370150;22;19999;-80
2022/09/04 04:21:32;;;;;;;8.17;7.30;;;21.90;89.80;;;;;;6370302;22;20003;-79
2022/09/04 04:24:00;;;;;;;;;;;21.80;90.10;;;;;;6370529;22;20223;-79
2022/09/04 04:26:39;;;;;;;8.15;6.57;;;21.70;90.30;;;;;;6369227;22;19898;-81
2022/09/04 04:29:24;;;;;;;8.35;6.38;;;21.70;90.40;;;;;;6341607;22;20026;-82
2022/09/04 04:32:14;;;;;;;7.43;6.25;;;21.70;90.40;;;;;;6369798;22;20313;-82
2022/09/04 04:34:39;;;;;;;7.57;5.93;;;21.80;90.30;;;;;;6369073;22;20423;-82
2022/09/04 04:37:15;;;;;;;6.35;5.25;;;21.90;90.10;;;;;;6369183;22;20033;-83
2022/09/04 04:39:50;;;;;;;6.97;6.28;;;21.90;89.20;;;;;;6369459;22;20037;-83
2022/09/04 04:42:16;;;;;;;11.07;7.30;;;22.10;89.10;;;;;;6370716;22;20029;-83
2022/09/04 04:48:26;;;;;;;5.38;4.82;;;22.00;89.00;;;;;;6369482;22;20093;-81
2022/09/04 04:50:58;;;;;;;7.80;5.72;;;22.10;88.30;;;;;;6342058;22;19998;-81
2022/09/04 04:54:00;;;;;;;5.82;5.20;;;22.20;88.20;;;;;;6369327;22;20077;-82
2022/09/04 04:56:44;;;;;;;6.47;5.88;;;22.30;87.90;;;;;;6341653;22;20405;-81
2022/09/04 04:59:45;;;;;;;5.60;4.57;;;22.20;87.80;;;;;;6369826;22;20005;-80
2022/09/04 05:02:23;;;;;;;6.55;4.65;;;22.30;87.50;;;;;;6340819;22;19998;-81
2022/09/04 05:05:13;;;;;;;5.97;5.38;;;22.30;87.50;;;;;;6368111;22;19994;-82
2022/09/04 05:07:51;;;;;;;5.78;5.20;;;22.30;87.20;;;;;;6368713;22;20305;-82
2022/09/04 05:10:24;;;;;;;12.48;7.32;;;22.20;87.20;;;;;;6369139;22;19994;-82
2022/09/04 05:12:53;;;;;;;7.30;6.57;;;22.20;87.50;;;;;;6368775;22;20398;-82
2022/09/04 05:16:14;;;;;;;7.53;6.68;;;22.20;87.70;;;;;;6368184;22;20006;-81
2022/09/04 05:18:49;;;;;;;8.18;7.35;;;22.10;88.10;;;;;;6282750;22;19998;-82
2022/09/04 05:21:39;;;;;;;8.85;7.95;;;21.80;88.90;;;;;;6368695;22;19994;-81
2022/09/04 05:24:51;;;;;;;8.98;7.28;;;21.80;89.60;;;;;;6369340;22;19994;-81
2022/09/04 05:27:19;;;;;;;4.53;4.13;;;21.70;89.90;;;;;;6212717;23;20044;-81
2022/09/04 05:30:07;;;;;;;5.88;4.55;;;21.80;89.50;;;;;;6211153;23;20001;-81
2022/09/04 05:32:52;;;;;;;6.13;5.22;;;21.90;88.80;;;;;;6311797;22;20018;-81
2022/09/04 05:35:29;;;;;;;6.22;5.00;;;22.00;88.40;;;;;;6369173;22;20033;-81
2022/09/04 05:38:03;;;;;;;7.38;6.63;;;22.10;88.20;;;;;;6369064;22;19994;-81
2022/09/04 05:40:36;;;;;;;7.15;6.43;;;22.10;88.40;;;;;;6340856;22;20077;-81
2022/09/04 05:43:23;;;;;;;10.43;6.63;;;22.10;88.60;;;;;;6369017;22;20006;-81
2022/09/04 05:46:10;;;;;;;8.00;5.72;;;22.00;89.10;;;;;;6368571;22;20076;-82
2022/09/04 05:48:45;;;;;;;5.30;4.65;;;21.90;89.40;;;;;;6368873;22;20339;-82
2022/09/04 05:51:31;;;;;;;8.05;7.25;;;22.00;89.10;;;;;;6369224;22;20002;-80
2022/09/04 05:54:53;;;;;;;4.72;4.25;;;21.90;89.30;;;;;;6369413;22;19998;-81
2022/09/04 05:57:55;;;;;;;5.28;4.57;;;22.00;88.90;;;;;;6211457;23;20005;-82
2022/09/04 06:00:21;;;;;;;6.40;4.90;;;22.20;88.70;;;;;;6211624;23;20028;-81
2022/09/04 06:02:52;;;;;;;7.20;4.45;;;22.20;88.30;;;;;;6316903;22;20400;-80
2022/09/04 06:05:43;;;;;;;4.57;3.75;;;22.40;88.00;;;;;;6371344;22;20026;-80
2022/09/04 06:08:18;;;;;;;5.20;4.65;;;22.40;87.90;;;;;;6370741;22;20007;-79
2022/09/04 06:10:59;;;;;;;9.40;5.47;;;22.40;87.50;;;;;;6370800;22;20363;-77
2022/09/04 06:13:46;;;;;;;4.65;3.28;;;22.40;87.50;;;;;;6371112;22;20299;-80
2022/09/04 06:16:26;;;;;;;5.03;3.83;;;22.50;87.20;;;;;;6369735;22;20414;-79
2022/09/04 06:19:01;;;;;;;3.47;3.15;;;22.60;87.00;;;;;;6369729;22;20047;-79
2022/09/04 06:21:57;;;;;;;4.00;3.40;;;22.60;86.70;;;;;;6370583;22;20073;-80
2022/09/04 06:24:53;;;;;;;5.25;3.08;;;22.70;86.60;;;;;;6370770;22;20009;-79
2022/09/04 06:27:25;;;;;;;5.45;3.00;;;22.80;86.30;;;;;;6342805;22;20002;-80
2022/09/04 06:30:07;;;;;;;3.10;2.47;;;22.80;85.60;;;;;;6370371;22;20047;-80
2022/09/04 06:32:39;;;;;;;4.57;2.85;;;22.90;85.60;;;;;;6370655;22;20024;-79
2022/09/04 06:35:43;;;;;;;6.15;3.47;;;23.00;84.90;;;;;;6369979;22;20051;-80
2022/09/04 06:38:18;;;;;;;3.85;2.75;;;23.00;84.50;;;;;;6369894;22;20075;-84
2022/09/04 06:40:47;;;;;;;3.80;2.90;;;23.10;84.30;;;;;;6367215;22;20001;-85
2022/09/04 06:43:29;;;;;;;4.80;3.33;;;23.20;84.30;;;;;;6368275;22;20005;-79
2022/09/04 06:46:01;;;;;;;3.50;2.60;;;23.20;82.90;;;;;;6370025;22;20014;-86
2022/09/04 06:48:45;;;;;;;3.35;2.45;;;23.20;83.40;;;;;;6369992;22;19998;-83
2022/09/04 06:51:23;;;;;;;6.20;3.17;;;23.20;83.00;;;;;;6370523;22;20010;-83
2022/09/04 06:54:19;;;;;;;3.70;2.35;;;23.30;83.00;;;;;;6370932;22;20003;-88
2022/09/04 06:57:10;;;;;;;2.05;1.92;;;23.40;82.70;;;;;;6370715;22;20454;-88
2022/09/04 06:59:58;;;;;;;3.50;2.28;;;23.40;82.50;;;;;;6372523;22;20116;-86
2022/09/04 07:03:01;;;;;;;5.57;2.70;;;23.50;82.40;;;;;;6371768;22;20071;-85
2022/09/04 07:06:16;;;;;;;5.07;2.20;;;23.60;82.30;;;;;;6370169;22;20425;-86
2022/09/04 07:08:58;;;;;;;4.32;2.25;;;23.60;82.10;;;;;;6284316;22;20009;-87
2022/09/04 07:11:43;;;;;;;5.93;2.33;;;23.70;81.70;;;;;;6341890;22;20047;-89
2022/09/04 07:14:15;;;;;;;3.75;2.20;;;23.80;81.50;;;;;;6343172;22;20018;-82
2022/09/04 07:17:21;;;;;;;3.08;2.00;;;23.80;81.30;;;;;;6370289;22;20002;-88
2022/09/04 07:19:50;;;;;;;2.05;1.80;;;23.90;81.10;;;;;;6370925;22;20034;-88
2022/09/04 07:22:25;;;;;;;2.55;2.05;;;23.90;80.90;;;;;;6343296;22;20003;-89
2022/09/04 07:25:10;;;;;;;3.28;2.28;;;24.00;80.70;;;;;;6371318;22;20006;-89
2022/09/04 07:27:51;;;;;;;2.88;2.22;;;24.00;80.60;;;;;;6343646;22;20048;-90
2022/09/04 07:30:19;;;;;;;2.85;2.05;;;24.00;80.10;;;;;;6343969;22;20106;-90
2022/09/04 07:32:52;;;;;;;3.20;2.40;;;24.00;80.50;;;;;;6371078;22;20324;-90
2022/09/04 07:35:37;;;;;;;3.42;2.22;;;24.10;80.40;;;;;;6371600;22;20002;-83
2022/09/04 07:38:13;;;;;;;2.58;1.75;;;24.00;80.00;;;;;;6370620;22;20013;-88
2022/09/04 07:40:54;;;;;;;15.15;2.33;;;24.10;80.70;;;;;;6370927;22;19999;-82
2022/09/04 07:43:25;;;;;;;4.75;3.28;;;24.10;80.00;;;;;;6370330;22;20001;-87
2022/09/04 07:46:04;;;;;;;3.42;2.38;;;24.20;79.90;;;;;;6370895;22;20009;-83
2022/09/04 07:48:40;;;;;;;6.30;2.28;;;24.20;79.80;;;;;;6370716;22;20002;-82
2022/09/04 07:51:14;;;;;;;4.68;1.75;;;24.30;79.90;;;;;;6341156;22;20067;-81
2022/09/04 07:53:43;;;;;;;3.00;2.25;;;24.40;79.70;;;;;;6369599;22;19998;-80
2022/09/04 07:56:11;;;;;;;3.42;1.75;;;24.50;79.80;;;;;;6369626;22;20062;-80
2022/09/04 07:59:07;;;;;;;2.30;1.73;;;24.60;79.50;;;;;;6370860;22;20047;-80
2022/09/04 08:01:55;;;;;;;2.70;1.70;;;24.80;79.50;;;;;;6369693;22;20046;-81
2022/09/04 08:04:36;;;;;;;2.22;1.55;;;24.90;79.40;;;;;;6370211;22;19994;-81
2022/09/04 08:07:20;;;;;;;2.83;1.80;;;24.90;79.20;;;;;;6369603;22;20002;-80
2022/09/04 08:10:04;;;;;;;4.00;1.70;;;25.10;79.30;;;;;;6369398;22;20424;-80
2022/09/04 08:19:00;;;;;;;1.67;1.40;;;25.40;78.80;;;;;;6336174;22;20026;-82
2022/09/04 08:21:41;;;;;;;6.60;1.90;;;25.60;78.50;;;;;;6310168;22;20082;-81
2022/09/04 08:24:26;;;;;;;2.38;1.20;;;25.70;78.20;;;;;;6336554;22;20003;-78
2022/09/04 08:27:14;;;;;;;2.67;1.23;;;25.80;78.10;;;;;;6310798;22;20011;-81
2022/09/04 08:30:07;;;;;;;1.40;1.17;;;25.90;78.00;;;;;;6363134;22;20034;-77
2022/09/04 08:33:15;;;;;;;1.85;0.90;;;25.80;77.70;;;;;;6310249;22;20447;-77
2022/09/04 08:35:52;;;;;;;3.17;1.10;;;26.00;78.00;;;;;;6338480;22;20010;-77
2022/09/04 08:38:29;;;;;;;1.08;0.95;;;26.00;77.90;;;;;;6310304;22;19999;-78
2022/09/04 08:41:13;;;;;;;2.72;1.20;;;26.10;77.80;;;;;;6311103;22;20034;-77
2022/09/04 08:43:57;;;;;;;3.17;1.50;;;26.20;77.70;;;;;;6308875;22;20005;-78
2022/09/04 08:46:53;;;;;;;1.95;1.13;;;26.30;77.60;;;;;;6354220;22;20015;-80
2022/09/04 08:49:37;;;;;;;3.25;1.30;;;26.40;77.30;;;;;;6335528;22;20082;-81
2022/09/04 08:52:21;;;;;;;5.50;1.67;;;26.30;76.70;;;;;;6368640;22;19995;-78
2022/09/04 08:55:06;;;;;;;2.92;1.83;;;26.30;75.80;;;;;;6370045;22;19998;-79
2022/09/04 08:58:04;;;;;;;2.80;1.65;;;26.40;75.60;;;;;;6368093;22;20420;-79
2022/09/04 09:00:39;;;;;;;3.78;1.15;;;26.40;75.50;;;;;;6341757;22;20002;-80
2022/09/04 09:03:43;;;;;;;1.92;1.27;;;26.50;76.20;;;;;;6369397;22;20022;-79
2022/09/04 09:06:39;;;;;;;2.25;1.13;;;26.60;75.90;;;;;;6370073;22;19999;-80
2022/09/04 09:09:55;;;;;;;1.67;1.50;;;26.80;75.90;;;;;;6369578;22;20002;-80
2022/09/04 09:12:46;;;;;;;2.17;1.30;;;27.00;75.10;;;;;;6369853;22;20439;-80
2022/09/04 09:15:38;;;;;;;1.67;1.10;;;27.20;75.30;;;;;;6370185;22;20480;-84
2022/09/04 09:18:21;;;;;;;2.75;1.38;;;27.30;74.90;;;;;;6290136;22;20343;-80
2022/09/04 09:21:11;;;;;;;1.70;1.05;;;27.20;74.40;;;;;;6341236;22;20316;-79
2022/09/04 09:24:01;;;;;;;4.05;1.20;;;27.20;73.30;;;;;;6371115;22;19994;-79
2022/09/04 09:26:31;;;;;;;1.67;0.95;;;27.00;73.90;;;;;;6362275;22;19998;-78
2022/09/04 09:29:15;;;;;;;;;;;26.90;74.10;;;;;;6370527;22;20051;-78
2022/09/04 09:32:18;;;;;;;1.92;1.08;;;26.80;74.10;;;;;;6368612;22;19909;-78
2022/09/04 09:34:53;;;;;;;2.10;1.00;;;26.80;74.90;;;;;;6369700;22;20063;-75
2022/09/04 09:37:31;;;;;;;3.08;1.40;;;26.80;75.20;;;;;;6371498;22;19998;-76
2022/09/04 09:40:23;;;;;;;1.50;1.02;;;26.90;75.70;;;;;;6370786;22;19998;-76
2022/09/04 09:43:18;;;;;;;1.58;0.98;;;27.10;75.90;;;;;;6366968;22;19995;-76
2022/09/04 09:45:49;;;;;;;4.88;1.80;;;27.40;76.20;;;;;;6366568;22;20067;-76
2022/09/04 09:48:36;;;;;;;3.83;1.73;;;27.50;73.90;;;;;;6371270;22;19998;-75
2022/09/04 09:51:36;;;;;;;1.92;1.15;;;27.50;74.70;;;;;;6371335;22;20077;-74
2022/09/04 09:54:30;;;;;;;1.35;0.95;;;27.50;74.40;;;;;;6337523;22;20007;-75
2022/09/04 09:57:11;;;;;;;2.40;1.30;;;27.60;74.70;;;;;;6370186;22;20007;-75
2022/09/04 10:00:11;;;;;;;1.55;1.25;;;27.70;74.70;;;;;;6342851;22;20029;-75
2022/09/04 10:03:04;;;;;;;1.55;1.20;;;27.80;73.70;;;;;;6369756;22;20002;-75
2022/09/04 10:05:39;;;;;;;1.73;1.10;;;28.00;73.70;;;;;;6369880;22;20056;-75
2022/09/04 10:08:26;;;;;;;1.77;1.13;;;28.10;73.40;;;;;;6371698;22;20002;-75
2022/09/04 10:11:15;;;;;;;1.15;0.98;;;28.10;72.50;;;;;;6369741;22;19998;-74
2022/09/04 10:13:50;;;;;;;3.22;1.25;;;28.10;72.10;;;;;;6369299;22;20430;-74
2022/09/04 10:17:00;;;;;;;2.80;1.30;;;28.00;72.30;;;;;;6370724;22;20396;-74
2022/09/04 10:19:57;;;;;;;1.73;1.10;;;28.10;72.80;;;;;;6369879;22;20006;-75
2022/09/04 10:22:44;;;;;;;0.98;0.82;;;28.30;72.90;;;;;;6341237;22;20305;-75
2022/09/04 10:25:31;;;;;;;2.03;1.20;;;28.50;72.30;;;;;;6369974;22;20452;-75
2022/09/04 10:28:34;;;;;;;3.78;1.45;;;28.60;71.60;;;;;;6368262;22;20378;-75
2022/09/04 10:31:27;;;;;;;1.58;1.20;;;28.80;71.30;;;;;;6369270;22;20030;-75
2022/09/04 10:34:22;;;;;;;2.70;1.10;;;28.90;70.40;;;;;;6370907;22;19998;-75
2022/09/04 10:37:00;;;;;;;4.30;1.75;;;29.00;70.40;;;;;;6370722;22;19998;-75
2022/09/04 10:42:39;;;;;;;2.88;1.02;;;29.50;69.90;;;;;;6369955;22;20481;-75
2022/09/04 10:45:16;;;;;;;2.90;1.27;;;29.80;69.20;;;;;;6370573;22;19999;-76
2022/09/04 10:48:00;;;;;;;1.95;1.20;;;30.10;68.20;;;;;;6370728;22;20010;-75
2022/09/04 10:50:58;;;;;;;1.52;1.15;;;30.30;67.40;;;;;;6370668;22;19995;-75
2022/09/04 10:53:39;;;;;;;2.33;1.20;;;30.50;66.90;;;;;;6371382;22;20003;-76
2022/09/04 10:56:50;;;;;;;3.17;1.40;;;30.70;66.40;;;;;;6370470;22;20067;-75
2022/09/04 10:59:56;;;;;;;1.92;1.20;;;30.90;63.40;;;;;;6371051;22;19995;-75
2022/09/04 11:02:55;;;;;;;1.65;0.95;;;31.00;65.20;;;;;;6370140;22;20370;-76
2022/09/04 11:05:56;;;;;;;1.63;1.05;;;31.20;65.10;;;;;;6342559;22;20029;-75
2022/09/04 11:08:59;;;;;;;1.60;1.40;;;31.40;64.30;;;;;;6371155;22;20017;-76
2022/09/04 11:11:43;;;;;;;1.77;1.00;;;31.40;62.00;;;;;;6314139;22;20006;-76
2022/09/04 11:14:24;;;;;;;1.65;0.77;;;31.40;63.40;;;;;;6369812;22;20002;-76
2022/09/04 11:17:08;;;;;;;1.33;0.90;;;31.60;63.00;;;;;;6369363;22;20436;-77
2022/09/04 11:19:52;;;;;;;2.10;1.33;;;31.80;62.80;;;;;;6369044;22;19995;-76
2022/09/04 11:22:37;;;;;;;1.20;0.90;;;31.90;61.00;;;;;;6370277;22;19995;-76
2022/09/04 11:25:50;;;;;;;2.38;1.20;;;32.10;59.20;;;;;;6370604;22;20454;-76
2022/09/04 11:28:38;;;;;;;1.50;0.90;;;32.20;60.10;;;;;;6369692;22;20005;-76
2022/09/04 11:32:01;;;;;;;4.70;1.70;;;32.40;60.60;;;;;;6369606;22;20026;-76
2022/09/04 11:34:59;;;;;;;2.50;1.30;;;32.70;59.80;;;;;;6212507;23;20058;-75
2022/09/04 11:37:33;;;;;;;1.90;1.35;;;32.90;59.10;;;;;;6213132;23;20497;-76
2022/09/04 11:40:36;;;;;;;2.33;1.38;;;33.10;58.70;;;;;;6348758;22;20010;-76
2022/09/04 11:43:22;;;;;;;2.47;1.25;;;33.40;58.10;;;;;;6342255;22;20041;-76
2022/09/04 11:46:03;;;;;;;1.95;1.02;;;33.70;57.80;;;;;;6369599;22;20425;-77
2022/09/04 11:49:00;;;;;;;3.38;1.30;;;34.00;54.60;;;;;;6370399;22;19994;-76
2022/09/04 11:51:46;;;;;;;3.45;1.20;;;34.10;54.70;;;;;;6370785;22;20362;-76
2022/09/04 11:54:28;;;;;;;5.60;1.38;;;34.20;55.50;;;;;;6369484;22;20009;-76
2022/09/04 11:57:17;;;;;;;3.28;1.45;;;34.40;54.50;;;;;;6369963;22;20007;-76
2022/09/04 12:00:11;;;;;;;1.67;1.20;;;34.60;54.90;;;;;;6348955;22;19998;-76
2022/09/04 12:02:58;;;;;;;2.78;1.30;;;34.60;53.40;;;;;;6370170;22;20081;-76
2022/09/04 12:05:49;;;;;;;2.00;1.20;;;34.80;53.70;;;;;;6370601;22;20005;-77
2022/09/04 12:08:49;;;;;;;1.95;1.23;;;34.90;52.20;;;;;;6370153;22;19998;-77
2022/09/04 12:11:20;;;;;;;;;;;35.10;51.90;;;;;;6370815;22;20069;-76
2022/09/04 12:13:45;;;;;;;2.45;1.30;;;35.20;52.10;;;;;;6369198;22;19902;-76
2022/09/04 12:16:33;;;;;;;2.17;1.23;;;35.30;53.30;;;;;;6369674;22;20012;-77
2022/09/04 12:19:14;;;;;;;4.47;1.30;;;35.50;53.60;;;;;;6370141;22;20020;-76
2022/09/04 12:21:56;;;;;;;2.47;1.10;;;35.60;53.30;;;;;;6369277;22;19998;-81
2022/09/04 12:24:35;;;;;;;3.50;1.10;;;35.70;52.70;;;;;;6369960;22;19998;-77
2022/09/04 12:27:07;;;;;;;;;;;35.60;52.60;;;;;;6341901;22;20308;-77
2022/09/04 12:29:32;;;;;;;2.22;1.08;;;35.50;52.70;;;;;;6338700;22;19903;-77
2022/09/04 12:32:29;;;;;;;3.83;1.25;;;35.40;52.70;;;;;;6366423;22;20006;-79
2022/09/04 12:35:13;;;;;;;2.47;1.20;;;35.40;52.90;;;;;;6366362;22;20091;-79
2022/09/04 12:37:55;;;;;;;2.67;1.20;;;35.10;53.10;;;;;;6366338;22;20057;-77
2022/09/04 12:40:54;;;;;;;5.28;1.25;;;34.60;52.70;;;;;;6338385;22;19998;-79
2022/09/04 12:44:04;;;;;;;2.67;1.30;;;34.30;53.30;;;;;;6364219;22;20121;-76
2022/09/04 12:47:03;;;;;;;2.03;1.20;;;33.80;54.40;;;;;;6208329;23;20020;-77
2022/09/04 12:49:38;;;;;;;2.20;1.15;;;33.40;55.30;;;;;;6208195;23;20028;-80
2022/09/04 12:52:09;;;;;;;2.08;1.05;;;33.10;55.20;;;;;;6312688;22;20030;-79
2022/09/04 12:55:08;;;;;;;1.50;1.30;;;33.00;55.90;;;;;;6366399;22;20040;-78
2022/09/04 12:57:41;;;;;;;1.80;1.05;;;33.10;56.10;;;;;;6366208;22;20424;-76
2022/09/04 13:00:14;;;;;;;1.70;1.10;;;33.20;56.40;;;;;;6366310;22;20002;-78
2022/09/04 13:02:45;;;;;;;3.00;1.10;;;33.20;57.30;;;;;;6366815;22;20101;-79
2022/09/04 13:05:34;;;;;;;2.83;1.35;;;33.10;57.30;;;;;;6365877;22;20553;-76
2022/09/04 13:08:05;;;;;;;1.08;0.95;;;33.00;57.40;;;;;;6366385;22;20022;-76
2022/09/04 13:11:04;;;;;;;3.53;1.20;;;33.00;57.80;;;;;;6365921;22;20003;-76
2022/09/04 13:13:42;;;;;;;3.35;1.38;;;32.90;58.00;;;;;;6366533;22;20001;-77
2022/09/04 13:16:32;;;;;;;3.10;1.33;;;32.80;58.30;;;;;;6366088;22;20749;-77
2022/09/04 13:19:33;;;;;;;3.47;1.38;;;32.50;58.60;;;;;;6365815;22;20039;-77
2022/09/04 13:22:15;;;;;;;1.63;1.10;;;32.30;59.20;;;;;;6366749;22;20399;-77
2022/09/04 13:25:08;;;;;;;7.80;1.30;;;32.00;59.90;;;;;;6340056;22;20006;-77
2022/09/04 13:27:56;;;;;;;5.35;1.30;;;31.90;60.50;;;;;;6368594;22;20063;-78
2022/09/04 13:30:25;;;;;;;2.97;1.38;;;31.70;60.90;;;;;;6368012;22;20006;-78
2022/09/04 13:32:55;;;;;;;2.92;1.23;;;31.50;60.90;;;;;;6368580;22;20081;-78
2022/09/04 13:35:40;;;;;;;;;;;31.30;61.00;;;;;;6369497;22;19998;-81
2022/09/04 13:38:18;;;;;;;2.45;1.00;;;31.10;61.90;;;;;;6369080;22;19947;-81
2022/09/04 13:41:05;;;;;;;3.72;1.63;;;31.00;62.10;;;;;;6370316;22;20054;-81
2022/09/04 13:43:52;;;;;;;1.63;1.25;;;30.80;62.20;;;;;;6367910;22;19998;-80
2022/09/04 13:46:23;;;;;;;3.38;1.30;;;30.70;62.60;;;;;;6369612;22;20006;-81
2022/09/04 13:48:54;;;;;;;4.45;1.45;;;30.60;63.00;;;;;;6369078;22;20025;-81
2022/09/04 13:51:28;;;;;;;2.85;1.13;;;30.60;63.10;;;;;;6368793;22;20003;-81
2022/09/04 13:54:32;;;;;;;2.10;1.20;;;30.40;63.10;;;;;;6369663;22;20052;-81
2022/09/04 13:57:17;;;;;;;1.00;0.88;;;30.40;63.30;;;;;;6282237;22;20010;-81
2022/09/04 13:59:48;;;;;;;4.45;1.30;;;30.40;63.60;;;;;;6370072;22;20058;-81
2022/09/04 14:02:15;;;;;;;2.55;1.45;;;30.30;64.00;;;;;;6368258;22;20003;-81
2022/09/04 14:04:47;;;;;;;2.80;1.48;;;30.30;64.30;;;;;;6369000;22;19998;-82
2022/09/04 14:07:28;;;;;;;4.82;1.60;;;30.20;64.30;;;;;;6367903;22;20006;-85
2022/09/04 14:09:59;;;;;;;7.10;1.80;;;30.10;64.40;;;;;;6367815;22;20003;-83
2022/09/04 14:12:54;;;;;;;2.38;1.38;;;30.10;64.50;;;;;;6337894;22;20021;-83
2022/09/04 14:15:41;;;;;;;1.98;1.15;;;30.10;64.50;;;;;;6287267;22;20716;-83
2022/09/04 14:18:25;;;;;;;4.20;1.27;;;30.10;64.40;;;;;;6368092;22;20001;-83
2022/09/04 14:20:56;;;;;;;3.13;1.60;;;30.00;64.10;;;;;;6340464;22;20002;-83
2022/09/04 14:23:54;;;;;;;1.50;1.20;;;29.90;64.30;;;;;;6370945;22;20048;-83
2022/09/04 14:26:28;;;;;;;1.35;0.90;;;29.90;64.50;;;;;;6370375;22;20002;-83
2022/09/04 14:28:54;;;;;;;1.50;1.27;;;29.90;64.30;;;;;;6371868;22;20026;-83
2022/09/04 14:31:40;;;;;;;3.33;1.30;;;29.80;64.00;;;;;;6370876;22;20525;-83